Time;durP1;ratioP1;P1;durP2;ratioP2;P2;SDS_P1;SDS_P2;PMS_P1;PMS_P2;Temp;Humidity;BMP_temperature;BMP_pressure;BME280_temperature;BME280_humidity;BME280_pressure;Samples;Min_cycle;Max_cycle;Signal;HPM_P1;HPM_P2
2023/03/01 00:01:29;;;;;;;11.55;5.60;;;;;;;1.56;64.71;103016.28;5115949;28;20142;-63
2023/03/01 00:03:58;;;;;;;12.15;5.85;;;;;;;1.46;64.85;103028.97;5115831;28;20150;-62
2023/03/01 00:06:26;;;;;;;9.70;5.80;;;;;;;1.41;65.08;103020.53;5099319;28;20147;-62
2023/03/01 00:08:54;;;;;;;11.35;5.75;;;;;;;1.33;66.07;103017.78;5078743;28;20090;-63
2023/03/01 00:11:27;;;;;;;9.55;6.03;;;;;;;1.30;66.25;103012.69;5095905;28;20484;-62
2023/03/01 00:13:57;;;;;;;9.48;5.68;;;;;;;1.26;66.22;103012.16;5078515;28;20040;-62
2023/03/01 00:16:28;;;;;;;9.85;5.97;;;;;;;1.18;66.67;103012.06;5102063;28;20056;-60
2023/03/01 00:18:57;;;;;;;9.98;5.88;;;;;;;1.20;66.60;103007.38;5116843;28;20130;-56
2023/03/01 00:21:25;;;;;;;9.25;5.45;;;;;;;1.18;67.12;103010.25;5110676;28;20048;-62
2023/03/01 00:23:54;;;;;;;11.80;5.80;;;;;;;1.19;66.67;103017.28;5095716;28;20040;-61
2023/03/01 00:26:23;;;;;;;9.70;5.40;;;;;;;1.10;66.98;103020.88;5093516;28;20063;-57
2023/03/01 00:28:51;;;;;;;10.73;5.88;;;;;;;1.11;67.84;103025.25;5112362;27;20070;-61
2023/03/01 00:31:22;;;;;;;10.38;5.53;;;;;;;1.24;67.21;103019.50;5115518;28;20062;-62
2023/03/01 00:33:57;;;;;;;9.65;5.57;;;;;;;1.30;66.91;103021.59;5116370;28;20056;-62
2023/03/01 00:36:28;;;;;;;11.48;5.60;;;;;;;1.31;66.71;103019.75;5097466;28;20052;-62
2023/03/01 00:38:57;;;;;;;10.07;5.85;;;;;;;1.35;66.53;103015.75;5113017;27;20047;-64
2023/03/01 00:41:26;;;;;;;9.80;5.93;;;;;;;1.27;66.50;103009.34;5092701;28;20423;-63
2023/03/01 00:43:55;;;;;;;9.68;5.47;;;;;;;1.23;66.49;103007.09;5096031;28;20078;-62
2023/03/01 00:46:25;;;;;;;8.40;5.20;;;;;;;1.24;67.30;103006.09;5094529;28;20109;-62
2023/03/01 00:48:53;;;;;;;10.20;5.68;;;;;;;1.22;67.26;103002.72;5077468;28;20040;-62
2023/03/01 00:51:23;;;;;;;8.15;5.60;;;;;;;1.19;67.04;102995.81;5096564;28;20097;-62
2023/03/01 00:53:53;;;;;;;8.68;5.47;;;;;;;1.07;67.39;103002.38;5113510;28;20039;-62
2023/03/01 00:56:20;;;;;;;9.95;5.50;;;;;;;1.03;67.99;102999.19;5080564;28;20036;-59
2023/03/01 00:58:48;;;;;;;8.57;5.10;;;;;;;1.14;67.90;102998.09;5076749;28;20488;-62
2023/03/01 01:01:22;;;;;;;8.40;5.22;;;;;;;1.20;67.36;102989.44;5076854;28;20385;-63
2023/03/01 01:03:54;;;;;;;10.23;5.43;;;;;;;1.13;67.35;102988.38;5077202;28;20107;-62
2023/03/01 01:06:30;;;;;;;8.65;5.40;;;;;;;1.17;67.75;102992.41;5104594;28;20044;-62
2023/03/01 01:08:58;;;;;;;;;;;;;;;1.17;67.23;102999.63;5099700;28;20508;-63
2023/03/01 01:11:28;;;;;;;10.18;5.68;;;;;;;1.06;67.66;102995.34;5114279;28;20310;-62
2023/03/01 01:13:57;;;;;;;9.63;5.32;;;;;;;1.08;67.90;102984.44;5113704;28;20446;-62
2023/03/01 01:16:27;;;;;;;10.07;5.55;;;;;;;1.13;67.91;102980.31;5114220;28;20047;-62
2023/03/01 01:18:55;;;;;;;10.50;5.70;;;;;;;1.18;67.75;102966.41;5104481;27;20058;-62
2023/03/01 01:21:24;;;;;;;9.77;5.65;;;;;;;1.17;67.59;102968.25;5093476;28;20541;-61
2023/03/01 01:23:52;;;;;;;11.82;5.80;;;;;;;1.16;67.51;102963.91;5093022;28;20054;-62
2023/03/01 01:26:23;;;;;;;8.27;5.25;;;;;;;1.17;67.45;102965.56;5102325;28;20052;-63
2023/03/01 01:28:51;;;;;;;10.00;5.82;;;;;;;1.20;67.63;102959.03;5082698;28;20052;-62
2023/03/01 01:31:19;;;;;;;12.27;5.72;;;;;;;1.16;67.19;102955.00;5076284;28;20055;-62
2023/03/01 01:33:47;;;;;;;9.73;5.20;;;;;;;1.17;67.97;102952.16;5076066;28;20436;-63
2023/03/01 01:36:15;;;;;;;9.35;5.60;;;;;;;1.22;67.62;102954.38;5104505;28;20515;-62
2023/03/01 01:38:43;;;;;;;9.70;5.70;;;;;;;1.22;67.79;102946.31;5096100;28;20040;-62
2023/03/01 01:41:11;;;;;;;9.88;5.47;;;;;;;1.22;67.84;102955.22;5113611;28;20043;-62
2023/03/01 01:43:46;;;;;;;11.55;5.18;;;;;;;1.24;67.53;102950.53;5113416;28;20433;-60
2023/03/01 01:46:32;;;;;;;8.75;5.45;;;;;;;1.25;67.22;102946.00;5070980;28;20066;-61
2023/03/01 01:49:42;;;;;;;11.55;5.65;;;;;;;1.21;67.20;102942.78;5092838;28;20040;-61
2023/03/01 01:52:22;;;;;;;11.95;5.57;;;;;;;1.24;67.82;102933.59;5083722;28;20100;-62
2023/03/01 01:55:00;;;;;;;10.23;6.18;;;;;;;1.20;67.08;102943.81;5092859;28;20044;-64
2023/03/01 01:58:02;;;;;;;9.02;5.32;;;;;;;1.16;67.84;102937.03;5093846;27;20044;-63
2023/03/01 02:00:31;;;;;;;8.75;5.93;;;;;;;1.18;67.92;102929.69;5043674;28;20360;-62
2023/03/01 02:03:11;;;;;;;8.85;5.53;;;;;;;1.19;67.63;102926.00;5100006;28;20047;-63
2023/03/01 02:05:57;;;;;;;9.70;5.50;;;;;;;1.17;68.27;102925.28;5095856;28;20044;-62
2023/03/01 02:08:28;;;;;;;9.32;5.45;;;;;;;1.14;68.51;102928.28;5095039;28;20139;-61
2023/03/01 02:10:57;;;;;;;10.15;5.68;;;;;;;1.15;68.23;102927.28;5076260;28;20048;-61
2023/03/01 02:13:25;;;;;;;16.92;6.10;;;;;;;1.15;67.71;102924.59;5076017;28;20056;-62
2023/03/01 02:15:54;;;;;;;8.65;5.40;;;;;;;1.14;68.12;102925.63;5103820;28;20074;-62
2023/03/01 02:18:24;;;;;;;10.05;5.53;;;;;;;1.18;68.06;102931.50;5097226;28;20096;-63
2023/03/01 02:20:59;;;;;;;11.05;5.18;;;;;;;1.17;67.98;102927.97;5114403;28;20484;-62
2023/03/01 02:23:28;;;;;;;9.57;5.80;;;;;;;1.10;68.19;102926.06;5100656;28;20047;-62
2023/03/01 02:26:31;;;;;;;11.02;5.97;;;;;;;0.98;68.75;102922.75;5114453;27;20063;-61
2023/03/01 02:28:59;;;;;;;10.82;5.45;;;;;;;0.76;69.37;102924.06;5097591;28;20392;-62
2023/03/01 02:31:42;;;;;;;9.10;5.43;;;;;;;0.72;70.36;102925.34;5113667;28;20044;-62
2023/03/01 02:34:16;;;;;;;9.05;5.22;;;;;;;0.63;70.58;102924.41;5113089;28;20100;-62
2023/03/01 02:37:07;;;;;;;7.22;5.00;;;;;;;0.44;71.64;102920.00;5111245;28;20067;-63
2023/03/01 02:39:47;;;;;;;9.00;5.30;;;;;;;0.37;72.15;102914.38;5110673;28;20078;-61
2023/03/01 02:42:20;;;;;;;7.97;4.80;;;;;;;0.39;72.55;102912.41;5095782;28;20068;-62
2023/03/01 02:44:49;;;;;;;10.07;5.20;;;;;;;0.39;72.92;102916.94;5111969;28;20051;-62
2023/03/01 02:47:17;;;;;;;8.77;5.05;;;;;;;0.42;72.43;102920.13;5093625;28;20070;-62
2023/03/01 02:49:45;;;;;;;8.65;4.72;;;;;;;0.45;72.34;102907.44;5112171;28;20130;-61
2023/03/01 02:52:37;;;;;;;12.02;5.30;;;;;;;0.51;72.15;102910.38;5111714;28;20487;-61
2023/03/01 02:55:15;;;;;;;9.38;4.85;;;;;;;0.56;71.92;102923.34;5077491;28;20412;-63
2023/03/01 02:57:46;;;;;;;9.30;5.22;;;;;;;0.54;72.35;102915.41;5058770;28;20404;-62
2023/03/01 03:00:19;;;;;;;8.82;4.88;;;;;;;0.49;71.91;102911.50;5092685;28;20040;-62
2023/03/01 03:02:49;;;;;;;8.82;5.07;;;;;;;0.36;73.40;102915.38;5091845;28;20040;-63
2023/03/01 03:05:26;;;;;;;7.20;4.70;;;;;;;0.42;73.21;102917.47;5093602;28;20052;-62
2023/03/01 03:07:58;;;;;;;8.27;4.90;;;;;;;0.29;73.68;102918.78;5075354;28;20052;-62
2023/03/01 03:10:32;;;;;;;9.32;4.70;;;;;;;0.26;73.81;102922.63;5092673;28;20044;-62
2023/03/01 03:13:06;;;;;;;13.68;5.07;;;;;;;0.35;74.14;102919.03;5107097;28;20050;-62
2023/03/01 03:15:38;;;;;;;8.13;5.00;;;;;;;0.47;72.79;102921.53;5096685;28;20048;-62
2023/03/01 03:18:14;;;;;;;8.90;5.63;;;;;;;0.35;73.21;102916.38;5095122;28;20093;-62
2023/03/01 03:20:42;;;;;;;8.55;4.93;;;;;;;0.19;73.21;102927.75;5095722;28;20133;-62
2023/03/01 03:23:10;;;;;;;7.00;4.50;;;;;;;0.09;74.55;102918.03;5096737;28;20456;-63
2023/03/01 03:25:38;;;;;;;8.40;4.65;;;;;;;0.08;73.96;102913.69;5096775;28;20048;-62
2023/03/01 03:28:10;;;;;;;7.50;4.50;;;;;;;0.08;74.84;102908.31;5078900;28;20349;-63
2023/03/01 03:30:40;;;;;;;8.80;4.78;;;;;;;0.18;74.20;102915.31;5062516;28;20097;-62
2023/03/01 03:33:09;;;;;;;8.30;4.72;;;;;;;0.17;73.46;102908.28;5104851;28;20067;-63
2023/03/01 03:35:48;;;;;;;8.30;4.55;;;;;;;0.06;75.04;102911.13;5107886;27;20097;-63
2023/03/01 03:38:18;;;;;;;9.60;4.72;;;;;;;0.03;74.53;102906.06;5095485;28;20129;-62
2023/03/01 03:40:51;;;;;;;8.65;4.97;;;;;;;-0.06;75.26;102912.31;5095646;28;20124;-63
2023/03/01 03:43:21;;;;;;;7.95;4.57;;;;;;;-0.15;75.01;102915.84;5097648;28;20118;-62
2023/03/01 03:45:50;;;;;;;6.68;4.40;;;;;;;-0.17;75.83;102913.31;5064490;28;20048;-63
2023/03/01 03:48:20;;;;;;;8.13;4.57;;;;;;;-0.17;75.89;102909.78;5078138;28;20079;-65
2023/03/01 03:50:50;;;;;;;10.20;5.18;;;;;;;-0.19;76.26;102907.28;5060807;28;20070;-65
2023/03/01 03:53:18;;;;;;;9.98;5.07;;;;;;;-0.18;75.87;102908.13;5078650;28;20036;-61
2023/03/01 03:55:48;;;;;;;7.57;4.60;;;;;;;-0.23;75.73;102908.56;5080509;27;20032;-62
2023/03/01 03:58:19;;;;;;;8.80;5.15;;;;;;;-0.17;76.44;102909.78;5095268;28;20044;-62
2023/03/01 04:00:49;;;;;;;7.22;4.60;;;;;;;-0.20;76.27;102905.56;5096736;28;20044;-62
2023/03/01 04:03:18;;;;;;;7.75;4.82;;;;;;;-0.18;76.15;102898.25;5096529;28;20484;-63
2023/03/01 04:05:47;;;;;;;7.57;4.53;;;;;;;-0.09;75.92;102897.38;5096326;28;20535;-62
2023/03/01 04:08:15;;;;;;;10.07;4.90;;;;;;;0.03;76.16;102894.50;5108466;27;20514;-64
2023/03/01 04:10:45;;;;;;;8.18;4.57;;;;;;;0.15;75.20;102893.34;5118653;27;20051;-63
2023/03/01 04:13:15;;;;;;;7.78;4.55;;;;;;;0.21;74.50;102890.88;5102722;28;20047;-58
2023/03/01 04:15:42;;;;;;;8.00;4.82;;;;;;;0.18;74.31;102887.66;5115172;28;20108;-59
2023/03/01 04:18:13;;;;;;;9.38;4.78;;;;;;;0.10;73.94;102882.22;5117092;28;20099;-62
2023/03/01 04:20:42;;;;;;;9.07;4.90;;;;;;;-0.01;75.42;102892.09;5125991;27;20048;-62
2023/03/01 04:23:15;;;;;;;8.48;4.72;;;;;;;-0.10;75.69;102884.09;5102149;28;20055;-56
2023/03/01 04:25:53;;;;;;;9.35;4.90;;;;;;;-0.11;75.83;102885.94;5110631;28;20054;-58
2023/03/01 04:28:30;;;;;;;8.30;4.90;;;;;;;-0.16;75.69;102880.19;5124773;27;20031;-61
2023/03/01 04:31:04;;;;;;;7.13;4.40;;;;;;;-0.23;76.46;102876.41;5137108;27;20039;-62
2023/03/01 04:33:34;;;;;;;7.43;4.88;;;;;;;-0.32;76.38;102875.44;5112810;28;20054;-62
2023/03/01 04:36:05;;;;;;;9.15;5.10;;;;;;;-0.38;77.24;102869.84;5115488;28;20054;-63
2023/03/01 04:38:33;;;;;;;8.10;5.05;;;;;;;-0.47;78.15;102867.03;5111482;27;20048;-61
2023/03/01 04:41:03;;;;;;;7.60;4.80;;;;;;;-0.40;77.66;102867.28;5101601;28;20115;-62
2023/03/01 04:43:30;;;;;;;10.05;5.22;;;;;;;-0.30;78.01;102862.75;5097510;28;20075;-62
2023/03/01 04:46:09;;;;;;;8.77;5.00;;;;;;;-0.26;77.33;102852.59;5096214;28;20116;-62
2023/03/01 04:48:38;;;;;;;9.35;4.85;;;;;;;-0.24;76.40;102863.97;5115484;27;20051;-63
2023/03/01 04:51:07;;;;;;;9.55;4.90;;;;;;;-0.20;76.63;102867.22;5114805;28;20047;-63
2023/03/01 04:53:38;;;;;;;8.77;4.65;;;;;;;-0.25;77.25;102867.66;5115187;28;20475;-62
2023/03/01 04:56:06;;;;;;;8.23;4.80;;;;;;;-0.30;77.17;102872.63;5116021;28;20040;-62
2023/03/01 04:58:33;;;;;;;9.32;4.90;;;;;;;-0.29;77.40;102872.47;5113472;28;20040;-62
2023/03/01 05:01:01;;;;;;;8.10;4.88;;;;;;;-0.33;77.26;102857.69;5113935;27;20521;-62
2023/03/01 05:03:29;;;;;;;10.63;5.18;;;;;;;-0.37;76.98;102861.63;5109564;28;20058;-63
2023/03/01 05:05:59;;;;;;;9.27;5.55;;;;;;;-0.38;78.06;102862.63;5094452;28;20048;-63
2023/03/01 05:08:27;;;;;;;8.93;5.32;;;;;;;-0.48;77.93;102859.13;5095266;28;20048;-63
2023/03/01 05:10:54;;;;;;;8.20;4.85;;;;;;;-0.44;78.62;102855.16;5106765;27;20073;-63
2023/03/01 05:13:23;;;;;;;9.77;5.25;;;;;;;-0.46;78.84;102860.69;5097232;28;20120;-63
2023/03/01 05:16:01;;;;;;;9.38;4.90;;;;;;;-0.34;77.93;102855.13;5097806;28;20070;-62
2023/03/01 05:18:30;;;;;;;9.82;4.85;;;;;;;-0.31;78.46;102846.84;5107325;28;20406;-62
2023/03/01 05:21:10;;;;;;;9.35;5.32;;;;;;;-0.28;77.30;102844.69;5101557;27;20113;-63
2023/03/01 05:23:38;;;;;;;8.05;5.32;;;;;;;-0.23;77.60;102834.38;5112795;28;20052;-62
2023/03/01 05:26:06;;;;;;;9.27;5.45;;;;;;;-0.19;76.79;102836.75;5116631;28;20126;-63
2023/03/01 05:28:49;;;;;;;9.65;5.70;;;;;;;-0.20;76.67;102832.41;5113851;28;20047;-63
2023/03/01 05:31:16;;;;;;;10.85;5.43;;;;;;;-0.21;76.72;102828.88;5114163;27;20043;-63
2023/03/01 05:33:45;;;;;;;8.60;4.90;;;;;;;-0.18;77.10;102823.22;5114611;28;20143;-62
2023/03/01 05:36:12;;;;;;;10.90;5.45;;;;;;;-0.11;76.57;102818.97;5086622;28;20124;-62
2023/03/01 05:38:40;;;;;;;9.43;5.28;;;;;;;-0.11;75.88;102813.59;5115751;28;20048;-62
2023/03/01 05:41:15;;;;;;;9.27;5.18;;;;;;;-0.17;76.49;102808.81;5118961;27;20050;-63
2023/03/01 05:43:44;;;;;;;7.93;5.03;;;;;;;-0.30;76.48;102808.34;5081851;28;20044;-64
2023/03/01 05:46:14;;;;;;;10.82;5.18;;;;;;;-0.33;77.87;102806.78;5116205;28;20377;-63
2023/03/01 05:48:43;;;;;;;9.65;5.63;;;;;;;-0.35;77.08;102805.25;5096538;27;20039;-61
2023/03/01 05:51:11;;;;;;;8.70;5.30;;;;;;;-0.41;78.04;102805.81;5078209;28;20048;-62
2023/03/01 05:53:41;;;;;;;10.68;5.97;;;;;;;-0.45;77.64;102805.28;5094032;28;20384;-64
2023/03/01 05:56:09;;;;;;;12.20;5.88;;;;;;;-0.53;78.68;102811.38;5093925;28;20507;-61
2023/03/01 05:58:38;;;;;;;9.13;5.65;;;;;;;-0.54;78.46;102811.50;5097774;27;20571;-62
2023/03/01 06:01:10;;;;;;;12.93;6.13;;;;;;;-0.62;78.30;102814.94;5112245;28;20047;-64
2023/03/01 06:03:38;;;;;;;9.43;5.85;;;;;;;-0.57;79.17;102817.16;5101469;28;20048;-61
2023/03/01 06:06:06;;;;;;;9.07;5.50;;;;;;;-0.59;79.47;102811.94;5093945;28;20117;-62
2023/03/01 06:08:33;;;;;;;10.65;5.65;;;;;;;-0.67;80.16;102819.88;5092489;28;20048;-62
2023/03/01 06:11:01;;;;;;;9.20;5.93;;;;;;;-0.74;80.67;102816.09;5098124;27;20051;-62
2023/03/01 06:13:29;;;;;;;9.77;5.68;;;;;;;-0.83;79.96;102816.94;5094723;28;20044;-62
2023/03/01 06:15:58;;;;;;;9.77;5.75;;;;;;;-0.86;81.23;102813.56;5100934;28;20044;-61
2023/03/01 06:18:26;;;;;;;10.75;5.68;;;;;;;-0.72;80.57;102811.41;5093805;28;20048;-62
2023/03/01 06:20:55;;;;;;;10.18;5.85;;;;;;;-0.73;80.94;102817.75;5107738;28;20118;-63
2023/03/01 06:23:23;;;;;;;10.07;5.53;;;;;;;-0.77;81.11;102817.22;5096098;28;20051;-64
2023/03/01 06:25:51;;;;;;;9.20;5.68;;;;;;;-0.76;81.39;102815.38;5112449;28;20039;-62
2023/03/01 06:28:19;;;;;;;10.05;5.53;;;;;;;-0.72;81.24;102809.59;5112867;28;20066;-61
2023/03/01 06:30:47;;;;;;;15.93;5.88;;;;;;;-0.70;80.54;102820.13;5113254;27;20119;-62
2023/03/01 06:33:14;;;;;;;12.02;5.70;;;;;;;-0.66;80.97;102816.19;5112490;28;20043;-62
2023/03/01 06:35:42;;;;;;;9.68;5.75;;;;;;;-0.70;80.33;102818.34;5105854;28;20126;-64
2023/03/01 06:38:10;;;;;;;9.75;5.72;;;;;;;-0.73;81.14;102815.91;5094299;28;20093;-63
2023/03/01 06:40:37;;;;;;;9.25;5.30;;;;;;;-0.80;80.78;102816.66;4387869;28;10000780;-64
2023/03/01 06:43:07;;;;;;;9.05;5.35;;;;;;;-0.91;82.29;102815.81;5088568;28;20135;-64
2023/03/01 06:45:35;;;;;;;9.05;5.70;;;;;;;-0.85;82.01;102819.75;5093147;28;20044;-63
2023/03/01 06:48:07;;;;;;;8.60;5.60;;;;;;;-0.86;82.31;102818.91;5088536;28;20522;-64
2023/03/01 06:50:38;;;;;;;10.25;5.95;;;;;;;-0.81;81.82;102815.81;5090601;28;20056;-64
2023/03/01 06:53:05;;;;;;;9.52;5.18;;;;;;;-0.65;81.29;102824.09;5111025;27;20074;-64
2023/03/01 06:55:33;;;;;;;10.80;5.90;;;;;;;-0.63;80.95;102818.56;5114199;28;20504;-63
2023/03/01 06:58:02;;;;;;;10.90;5.30;;;;;;;-0.61;81.48;102815.75;5098985;28;20051;-63
2023/03/01 07:00:30;;;;;;;10.60;5.72;;;;;;;-0.70;81.43;102820.13;5096592;28;20134;-62
2023/03/01 07:03:02;;;;;;;11.90;6.18;;;;;;;-0.69;80.97;102820.00;5099252;27;20054;-64
2023/03/01 07:05:30;;;;;;;9.63;5.40;;;;;;;-0.71;80.95;102813.09;5102690;28;20067;-65
2023/03/01 07:07:58;;;;;;;10.00;5.90;;;;;;;-0.76;81.70;102807.34;5115137;28;20441;-65
2023/03/01 07:10:26;;;;;;;9.77;5.63;;;;;;;-0.71;81.94;102810.44;5117926;28;20055;-62
2023/03/01 07:12:57;;;;;;;10.73;5.68;;;;;;;-0.71;82.22;102815.78;5114366;27;20475;-64
2023/03/01 07:15:25;;;;;;;11.00;5.72;;;;;;;-0.72;82.26;102814.09;5111528;27;20063;-64
2023/03/01 07:17:53;;;;;;;9.07;5.60;;;;;;;-0.66;81.92;102811.69;5090576;27;20055;-63
2023/03/01 07:20:24;;;;;;;10.55;5.78;;;;;;;-0.56;81.41;102814.31;5086871;28;20043;-63
2023/03/01 07:22:53;;;;;;;10.55;6.30;;;;;;;-0.45;81.25;102816.00;5088610;28;20071;-64
2023/03/01 07:25:20;;;;;;;12.55;6.15;;;;;;;-0.44;80.64;102820.34;5075434;28;20059;-65
2023/03/01 07:27:52;;;;;;;11.38;6.28;;;;;;;-0.42;80.32;102815.72;5100169;27;20131;-64
2023/03/01 07:30:21;;;;;;;13.32;6.22;;;;;;;-0.51;80.31;102824.59;5095070;28;20098;-64
2023/03/01 07:32:49;;;;;;;10.48;6.32;;;;;;;-0.52;81.52;102823.78;5097159;28;20131;-64
2023/03/01 07:35:17;;;;;;;11.80;6.60;;;;;;;-0.48;80.65;102825.19;5100285;28;20051;-63
2023/03/01 07:37:45;;;;;;;11.57;6.65;;;;;;;-0.52;80.94;102834.47;5117161;28;20103;-61
2023/03/01 07:40:13;;;;;;;12.40;6.85;;;;;;;-0.53;81.04;102821.22;5115910;27;20041;-63
2023/03/01 07:42:41;;;;;;;10.75;6.53;;;;;;;-0.50;81.70;102827.16;5115309;28;20100;-65
2023/03/01 07:45:09;;;;;;;13.02;6.68;;;;;;;-0.39;80.63;102826.13;5116133;28;20054;-62
2023/03/01 07:47:36;;;;;;;10.10;5.57;;;;;;;-0.34;80.67;102826.53;5117309;28;20056;-62
2023/03/01 07:50:05;;;;;;;10.63;6.20;;;;;;;-0.20;80.19;102830.56;5118830;27;20039;-63
2023/03/01 07:52:32;;;;;;;11.25;6.13;;;;;;;-0.15;79.74;102828.28;5114799;28;20043;-61
2023/03/01 07:55:00;;;;;;;11.57;6.30;;;;;;;-0.08;78.93;102815.97;5117546;28;20043;-63
2023/03/01 07:57:28;;;;;;;11.98;6.20;;;;;;;-0.02;79.55;102817.25;5099666;28;20040;-63
2023/03/01 07:59:55;;;;;;;11.90;5.93;;;;;;;0.07;78.13;102823.53;5115629;27;20087;-63
2023/03/01 08:02:23;;;;;;;13.73;6.13;;;;;;;0.13;77.70;102817.59;5115843;28;20047;-63
2023/03/01 08:04:51;;;;;;;11.25;6.30;;;;;;;0.15;78.12;102820.97;5096293;28;20048;-60
2023/03/01 08:07:18;;;;;;;11.77;6.47;;;;;;;0.17;78.16;102825.19;5096293;28;20447;-64
2023/03/01 08:09:46;;;;;;;13.20;6.75;;;;;;;0.19;77.80;102830.38;5095290;28;20055;-64
2023/03/01 08:12:16;;;;;;;11.60;6.90;;;;;;;0.16;78.12;102830.69;5117856;27;20484;-63
2023/03/01 08:14:43;;;;;;;13.55;6.75;;;;;;;0.13;77.83;102837.19;5108796;28;20414;-61
2023/03/01 08:17:14;;;;;;;11.35;7.00;;;;;;;0.16;78.98;102830.69;5115121;28;20047;-58
2023/03/01 08:19:43;;;;;;;14.38;7.35;;;;;;;0.28;77.90;102832.16;5108840;28;20119;-62
2023/03/01 08:22:10;;;;;;;14.50;7.28;;;;;;;0.32;78.08;102840.75;5097945;28;20048;-64
2023/03/01 08:24:38;;;;;;;13.35;6.72;;;;;;;0.56;78.82;102832.97;5115920;28;20063;-57
2023/03/01 08:27:06;;;;;;;12.32;6.85;;;;;;;0.55;76.86;102828.59;5115341;28;20084;-58
2023/03/01 08:29:33;;;;;;;12.13;7.22;;;;;;;0.51;77.05;102819.19;5110936;28;20139;-63
2023/03/01 08:32:01;;;;;;;12.60;6.93;;;;;;;0.60;77.50;102820.09;5078864;28;20441;-66
2023/03/01 08:34:31;;;;;;;17.30;6.88;;;;;;;0.66;76.90;102816.81;5121555;27;20063;-65
2023/03/01 08:36:58;;;;;;;11.95;6.80;;;;;;;0.76;76.54;102817.56;5101742;28;20088;-64
2023/03/01 08:39:26;;;;;;;13.90;7.43;;;;;;;0.79;75.90;102811.88;5115147;28;20080;-65
2023/03/01 08:41:54;;;;;;;12.18;6.82;;;;;;;0.82;75.96;102811.59;5105394;28;20476;-63
2023/03/01 08:44:22;;;;;;;17.95;6.88;;;;;;;1.13;87.21;102813.00;5091655;28;20122;-64
2023/03/01 08:46:52;;;;;;;9.82;5.55;;;;;;;1.32;78.42;102801.22;5115090;28;20496;-64
2023/03/01 08:49:21;;;;;;;11.43;6.72;;;;;;;1.43;76.25;102804.50;5104419;28;20051;-63
2023/03/01 08:51:49;;;;;;;14.10;6.75;;;;;;;1.32;74.75;102798.53;5094183;28;20131;-65
2023/03/01 08:54:19;;;;;;;10.07;6.70;;;;;;;1.26;75.23;102792.78;5104113;28;20097;-62
2023/03/01 08:56:47;;;;;;;10.90;6.80;;;;;;;1.22;74.09;102788.72;5113818;28;20051;-64
2023/03/01 08:59:16;;;;;;;16.08;7.00;;;;;;;1.21;74.42;102795.13;5115597;28;20075;-65
2023/03/01 09:01:44;;;;;;;11.77;7.30;;;;;;;1.24;74.10;102793.97;5115246;28;20044;-64
2023/03/01 09:04:14;;;;;;;13.32;7.28;;;;;;;1.30;73.61;102792.47;5114366;28;20048;-63
2023/03/01 09:06:41;;;;;;;11.23;7.35;;;;;;;1.30;73.62;102790.66;5112528;28;20044;-65
2023/03/01 09:09:17;;;;;;;12.32;7.55;;;;;;;1.31;73.37;102789.66;5116158;28;20059;-63
2023/03/01 09:11:46;;;;;;;10.88;6.78;;;;;;;1.35;72.54;102784.78;5097946;28;20476;-63
2023/03/01 09:14:14;;;;;;;11.70;6.93;;;;;;;1.38;72.35;102789.84;5115072;28;20077;-64
2023/03/01 09:16:42;;;;;;;11.55;6.88;;;;;;;1.42;71.90;102785.84;5116661;28;20074;-64
2023/03/01 09:19:10;;;;;;;10.88;7.15;;;;;;;1.46;71.63;102776.47;5114819;28;20158;-63
2023/03/01 09:21:39;;;;;;;11.07;6.85;;;;;;;1.49;71.97;102789.56;5116192;28;20043;-64
2023/03/01 09:24:14;;;;;;;13.43;7.30;;;;;;;1.55;72.02;102780.88;5123643;28;20058;-63
2023/03/01 09:26:46;;;;;;;11.73;6.82;;;;;;;1.60;72.08;102770.50;5099353;28;20055;-63
2023/03/01 09:29:16;;;;;;;13.07;6.82;;;;;;;1.65;72.20;102770.84;5094064;28;20087;-65
2023/03/01 09:31:44;;;;;;;11.00;6.57;;;;;;;1.72;70.13;102770.22;5093571;28;20048;-63
2023/03/01 09:34:15;;;;;;;15.05;7.40;;;;;;;1.80;69.62;102770.25;5113995;28;20173;-63
2023/03/01 09:36:42;;;;;;;20.08;8.68;;;;;;;1.84;68.55;102763.56;5097118;28;20396;-63
2023/03/01 09:39:10;;;;;;;11.95;6.88;;;;;;;1.84;68.26;102761.69;5097241;28;20100;-63
2023/03/01 09:41:48;;;;;;;9.90;5.85;;;;;;;1.85;69.32;102754.47;5096549;28;20142;-63
2023/03/01 09:44:35;;;;;;;19.40;7.82;;;;;;;1.93;70.28;102757.22;5111788;28;20050;-64
2023/03/01 09:47:04;;;;;;;12.75;6.63;;;;;;;2.00;68.63;102760.94;5100979;27;20047;-64
2023/03/01 09:49:34;;;;;;;10.25;6.10;;;;;;;2.03;66.88;102757.91;5091828;28;20039;-65
2023/03/01 09:52:26;;;;;;;20.48;7.30;;;;;;;2.09;67.92;102745.66;5113777;28;20376;-64
2023/03/01 09:54:55;;;;;;;10.98;6.07;;;;;;;2.08;65.58;102744.81;5105097;27;20040;-64
2023/03/01 09:57:37;;;;;;;11.73;5.82;;;;;;;2.10;65.29;102748.19;5094076;28;20541;-65
2023/03/01 10:00:10;;;;;;;12.10;6.30;;;;;;;2.10;64.86;102742.81;5101766;27;20036;-63
2023/03/01 10:03:09;;;;;;;10.15;5.95;;;;;;;2.11;64.40;102736.41;5103515;27;20051;-65
2023/03/01 10:05:57;;;;;;;11.13;5.68;;;;;;;2.17;63.38;102737.63;5085576;28;20063;-63
2023/03/01 10:08:37;;;;;;;17.10;6.43;;;;;;;2.20;63.47;102728.38;5113235;28;20489;-63
2023/03/01 10:11:12;;;;;;;10.27;6.45;;;;;;;2.22;63.26;102729.06;5111110;28;20082;-63
2023/03/01 10:14:01;;;;;;;11.10;6.20;;;;;;;2.25;63.61;102723.34;5092628;28;20123;-64
2023/03/01 10:16:50;;;;;;;12.35;5.70;;;;;;;2.30;64.30;102720.97;5094665;28;20075;-64
2023/03/01 10:19:43;;;;;;;11.10;6.20;;;;;;;2.33;63.55;102717.94;5101420;27;20096;-65
2023/03/01 10:22:21;;;;;;;12.73;6.30;;;;;;;2.39;63.24;102708.41;5114051;28;20043;-63
2023/03/01 10:24:50;;;;;;;11.00;6.30;;;;;;;2.40;63.81;102710.91;5111622;28;20150;-65
2023/03/01 10:27:26;;;;;;;13.80;6.90;;;;;;;2.43;63.57;102702.53;5095999;28;20434;-64
2023/03/01 10:30:06;;;;;;;12.30;6.47;;;;;;;2.45;64.15;102695.09;5103941;28;20071;-65
2023/03/01 10:32:34;;;;;;;10.50;6.22;;;;;;;2.49;63.87;102696.44;5111817;28;20329;-64
2023/03/01 10:35:17;;;;;;;14.80;6.50;;;;;;;2.51;63.87;102686.38;5105741;28;20048;-64
2023/03/01 10:38:08;;;;;;;14.32;6.03;;;;;;;2.58;63.48;102688.41;5100307;28;20085;-65
2023/03/01 10:40:49;;;;;;;13.10;6.13;;;;;;;2.61;63.13;102688.06;5091978;28;20040;-67
2023/03/01 10:43:17;;;;;;;11.00;5.90;;;;;;;2.63;61.82;102691.41;5092930;28;20048;-65
2023/03/01 10:45:45;;;;;;;12.45;6.13;;;;;;;2.65;61.88;102692.09;5092205;28;20098;-64
2023/03/01 10:48:20;;;;;;;11.80;6.28;;;;;;;2.68;61.25;102697.13;5094678;28;20454;-63
2023/03/01 10:51:06;;;;;;;11.25;6.28;;;;;;;2.73;61.28;102690.22;5093986;28;20075;-66
2023/03/01 10:53:42;;;;;;;11.37;6.23;;;;;;;2.75;61.30;102687.38;5112498;28;20126;-65
2023/03/01 10:56:13;;;;;;;13.02;6.97;;;;;;;2.88;62.28;102693.06;5108678;28;20474;-63
2023/03/01 10:59:02;;;;;;;11.88;7.00;;;;;;;2.92;62.80;102685.50;5086542;28;20455;-62
2023/03/01 11:01:34;;;;;;;10.32;6.28;;;;;;;2.88;61.85;102682.28;5117448;28;20135;-65
2023/03/01 11:04:06;;;;;;;11.45;6.20;;;;;;;2.90;61.69;102682.97;5120161;28;20050;-66
2023/03/01 11:06:37;;;;;;;11.15;6.80;;;;;;;2.94;61.19;102676.22;5101377;28;20044;-66
2023/03/01 11:09:22;;;;;;;13.50;6.72;;;;;;;2.93;61.85;102685.28;5113667;28;20472;-64
2023/03/01 11:11:57;;;;;;;11.07;6.53;;;;;;;2.91;61.58;102675.72;5111472;28;20543;-66
2023/03/01 11:14:27;;;;;;;9.73;5.72;;;;;;;2.90;59.36;102680.25;5078696;28;20051;-64
2023/03/01 11:17:25;;;;;;;9.75;5.82;;;;;;;3.00;59.67;102677.38;5098601;28;20040;-64
2023/03/01 11:20:14;;;;;;;11.68;5.57;;;;;;;3.06;59.03;102681.25;5092401;28;20407;-63
2023/03/01 11:22:52;;;;;;;10.98;6.20;;;;;;;3.08;58.67;102685.47;5095162;28;20052;-64
2023/03/01 11:25:26;;;;;;;9.38;5.10;;;;;;;3.12;58.59;102681.38;5091962;28;20048;-65
2023/03/01 11:27:55;;;;;;;10.38;5.97;;;;;;;3.22;58.13;102677.66;5092841;28;20129;-65
2023/03/01 11:30:40;;;;;;;11.10;6.15;;;;;;;3.27;58.90;102678.84;5058276;28;20109;-65
2023/03/01 11:33:08;;;;;;;9.73;6.28;;;;;;;3.28;58.55;102672.44;5097844;28;20544;-65
2023/03/01 11:35:41;;;;;;;11.00;6.20;;;;;;;3.25;58.49;102663.84;4390999;28;10000322;-66
2023/03/01 11:38:24;;;;;;;13.30;5.63;;;;;;;3.24;58.87;102652.22;5080018;28;20047;-64
2023/03/01 11:41:12;;;;;;;10.75;6.03;;;;;;;3.28;58.88;102652.75;5093871;28;20101;-65
2023/03/01 11:43:54;;;;;;;10.70;6.07;;;;;;;3.34;59.37;102657.41;5102783;28;20047;-66
2023/03/01 11:46:41;;;;;;;12.43;6.30;;;;;;;3.34;58.95;102662.78;5112418;28;20122;-65
2023/03/01 11:49:26;;;;;;;9.95;5.82;;;;;;;3.36;58.59;102658.06;5088498;28;20570;-66